Bordeaux, Wyoming
Current Conditions -  °F | °C
As of 10:15 AM on Thursday 30 Oct 2014 (Local Time) from KGUR Reporting Station
Clear Clear  
Wind Chill: 56°   Ceiling: Unl
Heat Index: 56°   Visibility: 10mi
Dew Point: 30°   Wind: 6mph
Humidity: 36%   Direction: 280°W
Pressure: 30.36"   Gusts: NA
Location:  42.0178°N, 105.098°W
Report Text: KGUR 301615Z AUTO 28005KT 10SM CLR 14/M01 A3036 RMK AO2 T01351012
Loading
Personal Weather Stations






























Interactive Weather Map New forecast layout! Learn more

10-Day Weather Forecast

Advertisements
Track Severe Weather on mobile